sensor_id;sensor_type;location;lat;lon;timestamp;P1;durP1;ratioP1;P2;durP2;ratioP2
80700;SDS011;71609;42.630;23.380;2023-09-08T00:00:55;5.80;;;3.28;;
80700;SDS011;71609;42.630;23.380;2023-09-08T00:03:21;5.88;;;3.33;;
80700;SDS011;71609;42.630;23.380;2023-09-08T00:05:47;5.10;;;3.00;;
80700;SDS011;71609;42.630;23.380;2023-09-08T00:08:13;5.80;;;3.25;;
80700;SDS011;71609;42.630;23.380;2023-09-08T00:10:38;4.97;;;2.85;;
80700;SDS011;71609;42.630;23.380;2023-09-08T00:13:04;5.95;;;3.40;;
80700;SDS011;71609;42.630;23.380;2023-09-08T00:15:29;6.78;;;3.67;;
80700;SDS011;71609;42.630;23.380;2023-09-08T00:17:55;5.65;;;3.03;;
80700;SDS011;71609;42.630;23.380;2023-09-08T00:20:22;4.53;;;2.72;;
80700;SDS011;71609;42.630;23.380;2023-09-08T00:22:47;4.47;;;2.72;;
80700;SDS011;71609;42.630;23.380;2023-09-08T00:25:13;5.80;;;2.90;;
80700;SDS011;71609;42.630;23.380;2023-09-08T00:27:39;5.55;;;3.03;;
80700;SDS011;71609;42.630;23.380;2023-09-08T00:30:05;4.85;;;3.00;;
80700;SDS011;71609;42.630;23.380;2023-09-08T00:32:31;5.25;;;3.03;;
80700;SDS011;71609;42.630;23.380;2023-09-08T00:34:57;7.30;;;3.28;;
80700;SDS011;71609;42.630;23.380;2023-09-08T00:37:22;5.57;;;3.30;;
80700;SDS011;71609;42.630;23.380;2023-09-08T00:39:49;5.45;;;3.33;;
80700;SDS011;71609;42.630;23.380;2023-09-08T00:42:14;5.93;;;3.47;;
80700;SDS011;71609;42.630;23.380;2023-09-08T00:44:40;5.32;;;3.08;;
80700;SDS011;71609;42.630;23.380;2023-09-08T00:47:06;5.93;;;2.83;;
80700;SDS011;71609;42.630;23.380;2023-09-08T00:49:31;6.70;;;3.28;;
80700;SDS011;71609;42.630;23.380;2023-09-08T00:51:57;5.75;;;3.20;;
80700;SDS011;71609;42.630;23.380;2023-09-08T00:54:23;5.18;;;2.97;;
80700;SDS011;71609;42.630;23.380;2023-09-08T00:56:49;4.30;;;2.60;;
80700;SDS011;71609;42.630;23.380;2023-09-08T00:59:21;5.35;;;3.08;;
80700;SDS011;71609;42.630;23.380;2023-09-08T01:01:47;4.50;;;2.80;;
80700;SDS011;71609;42.630;23.380;2023-09-08T01:04:13;4.88;;;2.95;;
80700;SDS011;71609;42.630;23.380;2023-09-08T01:06:38;5.10;;;3.00;;
80700;SDS011;71609;42.630;23.380;2023-09-08T01:09:04;5.18;;;3.10;;
80700;SDS011;71609;42.630;23.380;2023-09-08T01:11:31;5.93;;;3.08;;
80700;SDS011;71609;42.630;23.380;2023-09-08T01:13:57;5.78;;;2.88;;
80700;SDS011;71609;42.630;23.380;2023-09-08T01:16:22;5.40;;;3.45;;
80700;SDS011;71609;42.630;23.380;2023-09-08T01:18:48;5.60;;;3.05;;
80700;SDS011;71609;42.630;23.380;2023-09-08T01:24:03;5.05;;;2.70;;
80700;SDS011;71609;42.630;23.380;2023-09-08T01:26:42;5.55;;;3.00;;
80700;SDS011;71609;42.630;23.380;2023-09-08T01:29:09;4.93;;;2.80;;
80700;SDS011;71609;42.630;23.380;2023-09-08T01:31:35;6.65;;;3.20;;
80700;SDS011;71609;42.630;23.380;2023-09-08T01:34:02;4.82;;;2.78;;
80700;SDS011;71609;42.630;23.380;2023-09-08T01:36:31;6.63;;;3.10;;
80700;SDS011;71609;42.630;23.380;2023-09-08T01:38:58;5.07;;;3.08;;
80700;SDS011;71609;42.630;23.380;2023-09-08T01:41:25;5.22;;;2.80;;
80700;SDS011;71609;42.630;23.380;2023-09-08T01:43:50;5.05;;;3.10;;
80700;SDS011;71609;42.630;23.380;2023-09-08T01:46:16;5.80;;;2.90;;
80700;SDS011;71609;42.630;23.380;2023-09-08T01:48:41;5.40;;;2.65;;
80700;SDS011;71609;42.630;23.380;2023-09-08T01:51:07;4.25;;;2.53;;
80700;SDS011;71609;42.630;23.380;2023-09-08T01:53:33;4.68;;;3.00;;
80700;SDS011;71609;42.630;23.380;2023-09-08T01:55:59;5.82;;;2.85;;
80700;SDS011;71609;42.630;23.380;2023-09-08T01:58:24;5.25;;;3.10;;
80700;SDS011;71609;42.630;23.380;2023-09-08T02:00:51;4.78;;;2.70;;
80700;SDS011;71609;42.630;23.380;2023-09-08T02:03:17;5.40;;;2.65;;
80700;SDS011;71609;42.630;23.380;2023-09-08T02:05:42;4.70;;;2.90;;
80700;SDS011;71609;42.630;23.380;2023-09-08T02:08:09;5.13;;;3.00;;
80700;SDS011;71609;42.630;23.380;2023-09-08T02:10:35;5.30;;;3.22;;
80700;SDS011;71609;42.630;23.380;2023-09-08T02:13:00;5.03;;;2.97;;
80700;SDS011;71609;42.630;23.380;2023-09-08T02:15:26;5.38;;;3.05;;
80700;SDS011;71609;42.630;23.380;2023-09-08T02:17:55;4.90;;;2.80;;
80700;SDS011;71609;42.630;23.380;2023-09-08T02:20:21;5.97;;;2.78;;
80700;SDS011;71609;42.630;23.380;2023-09-08T02:22:49;7.15;;;2.80;;
80700;SDS011;71609;42.630;23.380;2023-09-08T02:25:18;4.95;;;2.85;;
80700;SDS011;71609;42.630;23.380;2023-09-08T02:27:43;5.43;;;2.90;;
80700;SDS011;71609;42.630;23.380;2023-09-08T02:30:09;5.40;;;2.78;;
80700;SDS011;71609;42.630;23.380;2023-09-08T02:32:35;5.70;;;3.30;;
80700;SDS011;71609;42.630;23.380;2023-09-08T02:35:01;5.40;;;2.95;;
80700;SDS011;71609;42.630;23.380;2023-09-08T02:37:26;4.93;;;2.78;;
80700;SDS011;71609;42.630;23.380;2023-09-08T02:39:52;4.88;;;2.80;;
80700;SDS011;71609;42.630;23.380;2023-09-08T02:42:17;4.47;;;2.70;;
80700;SDS011;71609;42.630;23.380;2023-09-08T02:44:43;5.10;;;2.95;;
80700;SDS011;71609;42.630;23.380;2023-09-08T02:47:09;4.80;;;2.70;;
80700;SDS011;71609;42.630;23.380;2023-09-08T02:49:35;6.32;;;2.70;;
80700;SDS011;71609;42.630;23.380;2023-09-08T02:52:01;5.13;;;3.05;;
80700;SDS011;71609;42.630;23.380;2023-09-08T02:54:26;5.68;;;3.08;;
80700;SDS011;71609;42.630;23.380;2023-09-08T02:56:52;4.82;;;2.85;;
80700;SDS011;71609;42.630;23.380;2023-09-08T02:59:18;5.53;;;2.83;;
80700;SDS011;71609;42.630;23.380;2023-09-08T03:01:43;6.53;;;3.20;;
80700;SDS011;71609;42.630;23.380;2023-09-08T03:04:09;5.22;;;2.75;;
80700;SDS011;71609;42.630;23.380;2023-09-08T03:06:34;4.60;;;2.80;;
80700;SDS011;71609;42.630;23.380;2023-09-08T03:09:00;7.72;;;2.95;;
80700;SDS011;71609;42.630;23.380;2023-09-08T03:11:26;5.07;;;3.00;;
80700;SDS011;71609;42.630;23.380;2023-09-08T03:13:51;5.45;;;2.97;;
80700;SDS011;71609;42.630;23.380;2023-09-08T03:16:17;7.45;;;2.63;;
80700;SDS011;71609;42.630;23.380;2023-09-08T03:18:43;5.18;;;2.83;;
80700;SDS011;71609;42.630;23.380;2023-09-08T03:21:08;4.65;;;2.78;;
80700;SDS011;71609;42.630;23.380;2023-09-08T03:23:41;5.47;;;2.72;;
80700;SDS011;71609;42.630;23.380;2023-09-08T03:26:08;4.40;;;2.58;;
80700;SDS011;71609;42.630;23.380;2023-09-08T03:28:34;4.68;;;2.63;;
80700;SDS011;71609;42.630;23.380;2023-09-08T03:31:01;5.65;;;2.97;;
80700;SDS011;71609;42.630;23.380;2023-09-08T03:33:27;6.55;;;2.80;;
80700;SDS011;71609;42.630;23.380;2023-09-08T03:35:53;4.55;;;2.53;;
80700;SDS011;71609;42.630;23.380;2023-09-08T03:38:18;4.03;;;2.78;;
80700;SDS011;71609;42.630;23.380;2023-09-08T03:40:44;4.35;;;2.40;;
80700;SDS011;71609;42.630;23.380;2023-09-08T03:43:10;4.78;;;2.70;;
80700;SDS011;71609;42.630;23.380;2023-09-08T03:45:35;5.57;;;2.80;;
80700;SDS011;71609;42.630;23.380;2023-09-08T03:48:01;4.93;;;2.53;;
80700;SDS011;71609;42.630;23.380;2023-09-08T03:50:26;7.10;;;3.45;;
80700;SDS011;71609;42.630;23.380;2023-09-08T03:52:52;4.25;;;2.67;;
80700;SDS011;71609;42.630;23.380;2023-09-08T03:55:18;7.13;;;2.90;;
80700;SDS011;71609;42.630;23.380;2023-09-08T03:57:44;4.72;;;2.65;;
80700;SDS011;71609;42.630;23.380;2023-09-08T04:00:10;5.72;;;3.03;;
80700;SDS011;71609;42.630;23.380;2023-09-08T04:02:36;3.85;;;2.22;;
80700;SDS011;71609;42.630;23.380;2023-09-08T04:05:02;5.65;;;2.88;;
80700;SDS011;71609;42.630;23.380;2023-09-08T04:07:28;6.85;;;2.90;;
80700;SDS011;71609;42.630;23.380;2023-09-08T04:09:54;4.70;;;2.70;;
80700;SDS011;71609;42.630;23.380;2023-09-08T04:12:19;5.28;;;2.85;;
80700;SDS011;71609;42.630;23.380;2023-09-08T04:14:45;4.65;;;2.67;;
80700;SDS011;71609;42.630;23.380;2023-09-08T04:17:11;5.13;;;2.83;;
80700;SDS011;71609;42.630;23.380;2023-09-08T04:19:36;4.22;;;2.38;;
80700;SDS011;71609;42.630;23.380;2023-09-08T04:22:02;5.50;;;2.80;;
80700;SDS011;71609;42.630;23.380;2023-09-08T04:24:28;4.93;;;2.75;;
80700;SDS011;71609;42.630;23.380;2023-09-08T04:26:53;5.38;;;2.90;;
80700;SDS011;71609;42.630;23.380;2023-09-08T04:29:19;5.05;;;2.80;;
80700;SDS011;71609;42.630;23.380;2023-09-08T04:31:45;5.25;;;2.83;;
80700;SDS011;71609;42.630;23.380;2023-09-08T04:34:10;5.43;;;2.90;;
80700;SDS011;71609;42.630;23.380;2023-09-08T04:36:36;6.22;;;2.90;;
80700;SDS011;71609;42.630;23.380;2023-09-08T04:39:02;4.75;;;2.70;;
80700;SDS011;71609;42.630;23.380;2023-09-08T04:41:27;6.63;;;2.83;;
80700;SDS011;71609;42.630;23.380;2023-09-08T04:43:53;4.97;;;2.78;;
80700;SDS011;71609;42.630;23.380;2023-09-08T04:46:20;5.45;;;2.70;;
80700;SDS011;71609;42.630;23.380;2023-09-08T04:48:46;5.47;;;2.90;;
80700;SDS011;71609;42.630;23.380;2023-09-08T04:51:11;7.85;;;2.97;;
80700;SDS011;71609;42.630;23.380;2023-09-08T04:53:37;7.50;;;3.15;;
80700;SDS011;71609;42.630;23.380;2023-09-08T04:56:03;6.97;;;2.92;;
80700;SDS011;71609;42.630;23.380;2023-09-08T04:58:28;8.35;;;2.80;;
80700;SDS011;71609;42.630;23.380;2023-09-08T05:00:54;5.95;;;2.95;;
80700;SDS011;71609;42.630;23.380;2023-09-08T05:03:20;5.20;;;2.78;;
80700;SDS011;71609;42.630;23.380;2023-09-08T05:05:46;5.30;;;2.88;;
80700;SDS011;71609;42.630;23.380;2023-09-08T05:08:12;5.90;;;3.10;;
80700;SDS011;71609;42.630;23.380;2023-09-08T05:10:37;5.63;;;2.78;;
80700;SDS011;71609;42.630;23.380;2023-09-08T05:13:03;4.70;;;2.58;;
80700;SDS011;71609;42.630;23.380;2023-09-08T05:15:29;5.13;;;2.75;;
80700;SDS011;71609;42.630;23.380;2023-09-08T05:17:55;6.88;;;3.03;;
80700;SDS011;71609;42.630;23.380;2023-09-08T05:20:21;4.45;;;2.50;;
80700;SDS011;71609;42.630;23.380;2023-09-08T05:22:47;5.75;;;2.90;;
80700;SDS011;71609;42.630;23.380;2023-09-08T05:25:12;4.82;;;2.50;;
80700;SDS011;71609;42.630;23.380;2023-09-08T05:27:38;4.45;;;2.45;;
80700;SDS011;71609;42.630;23.380;2023-09-08T05:30:04;4.75;;;2.65;;
80700;SDS011;71609;42.630;23.380;2023-09-08T05:32:30;5.35;;;2.70;;
80700;SDS011;71609;42.630;23.380;2023-09-08T05:34:56;5.63;;;2.63;;
80700;SDS011;71609;42.630;23.380;2023-09-08T05:37:22;5.95;;;2.80;;
80700;SDS011;71609;42.630;23.380;2023-09-08T05:39:47;5.70;;;2.95;;
80700;SDS011;71609;42.630;23.380;2023-09-08T05:42:13;6.60;;;2.63;;
80700;SDS011;71609;42.630;23.380;2023-09-08T05:44:39;4.47;;;2.70;;
80700;SDS011;71609;42.630;23.380;2023-09-08T05:47:05;4.60;;;2.55;;
80700;SDS011;71609;42.630;23.380;2023-09-08T05:49:30;4.88;;;2.50;;
80700;SDS011;71609;42.630;23.380;2023-09-08T05:51:56;4.70;;;2.47;;
80700;SDS011;71609;42.630;23.380;2023-09-08T05:54:22;5.40;;;2.78;;
80700;SDS011;71609;42.630;23.380;2023-09-08T05:56:47;11.10;;;3.33;;
80700;SDS011;71609;42.630;23.380;2023-09-08T05:59:13;8.25;;;3.20;;
80700;SDS011;71609;42.630;23.380;2023-09-08T06:01:39;8.98;;;3.80;;
80700;SDS011;71609;42.630;23.380;2023-09-08T06:04:05;11.27;;;3.53;;
80700;SDS011;71609;42.630;23.380;2023-09-08T06:06:30;8.10;;;3.10;;
80700;SDS011;71609;42.630;23.380;2023-09-08T06:08:57;7.28;;;3.15;;
80700;SDS011;71609;42.630;23.380;2023-09-08T06:11:23;9.77;;;3.80;;
80700;SDS011;71609;42.630;23.380;2023-09-08T06:13:48;6.45;;;3.33;;
80700;SDS011;71609;42.630;23.380;2023-09-08T06:16:14;7.45;;;3.53;;
80700;SDS011;71609;42.630;23.380;2023-09-08T06:18:40;14.13;;;3.10;;
80700;SDS011;71609;42.630;23.380;2023-09-08T06:21:06;11.05;;;3.50;;
80700;SDS011;71609;42.630;23.380;2023-09-08T06:23:32;10.55;;;2.95;;
80700;SDS011;71609;42.630;23.380;2023-09-08T06:25:59;10.38;;;3.33;;
80700;SDS011;71609;42.630;23.380;2023-09-08T06:28:25;11.88;;;3.17;;
80700;SDS011;71609;42.630;23.380;2023-09-08T06:30:52;9.18;;;2.90;;
80700;SDS011;71609;42.630;23.380;2023-09-08T06:33:19;11.23;;;2.72;;
80700;SDS011;71609;42.630;23.380;2023-09-08T06:35:45;15.88;;;3.20;;
80700;SDS011;71609;42.630;23.380;2023-09-08T06:38:12;10.60;;;3.05;;
80700;SDS011;71609;42.630;23.380;2023-09-08T06:40:38;9.40;;;3.60;;
80700;SDS011;71609;42.630;23.380;2023-09-08T06:43:04;16.48;;;3.17;;
80700;SDS011;71609;42.630;23.380;2023-09-08T06:45:30;16.23;;;3.45;;
80700;SDS011;71609;42.630;23.380;2023-09-08T06:47:55;10.05;;;2.67;;
80700;SDS011;71609;42.630;23.380;2023-09-08T06:50:21;12.30;;;3.00;;
80700;SDS011;71609;42.630;23.380;2023-09-08T06:52:50;12.68;;;2.72;;
80700;SDS011;71609;42.630;23.380;2023-09-08T06:57:42;7.07;;;3.05;;
80700;SDS011;71609;42.630;23.380;2023-09-08T07:00:09;10.50;;;2.85;;
80700;SDS011;71609;42.630;23.380;2023-09-08T07:02:36;9.65;;;3.05;;
80700;SDS011;71609;42.630;23.380;2023-09-08T07:05:03;7.07;;;3.08;;
80700;SDS011;71609;42.630;23.380;2023-09-08T07:07:36;9.25;;;3.08;;
80700;SDS011;71609;42.630;23.380;2023-09-08T07:10:02;8.80;;;2.35;;
80700;SDS011;71609;42.630;23.380;2023-09-08T07:12:29;13.93;;;2.78;;
80700;SDS011;71609;42.630;23.380;2023-09-08T07:14:55;14.65;;;3.20;;
80700;SDS011;71609;42.630;23.380;2023-09-08T07:17:21;9.70;;;2.60;;
80700;SDS011;71609;42.630;23.380;2023-09-08T07:19:48;6.80;;;3.00;;
80700;SDS011;71609;42.630;23.380;2023-09-08T07:22:17;11.32;;;2.80;;
80700;SDS011;71609;42.630;23.380;2023-09-08T07:24:43;10.77;;;2.60;;
80700;SDS011;71609;42.630;23.380;2023-09-08T07:27:09;10.55;;;2.63;;
80700;SDS011;71609;42.630;23.380;2023-09-08T07:29:37;8.60;;;2.83;;
80700;SDS011;71609;42.630;23.380;2023-09-08T07:32:03;12.80;;;2.83;;
80700;SDS011;71609;42.630;23.380;2023-09-08T07:34:29;6.32;;;2.40;;
80700;SDS011;71609;42.630;23.380;2023-09-08T07:36:55;9.32;;;2.78;;
80700;SDS011;71609;42.630;23.380;2023-09-08T07:39:20;6.80;;;2.42;;
80700;SDS011;71609;42.630;23.380;2023-09-08T07:41:46;11.10;;;2.88;;
80700;SDS011;71609;42.630;23.380;2023-09-08T07:44:12;5.97;;;2.30;;
80700;SDS011;71609;42.630;23.380;2023-09-08T07:46:38;10.82;;;2.05;;
80700;SDS011;71609;42.630;23.380;2023-09-08T07:49:03;9.55;;;2.60;;
80700;SDS011;71609;42.630;23.380;2023-09-08T07:51:29;12.95;;;2.78;;
80700;SDS011;71609;42.630;23.380;2023-09-08T07:53:55;5.55;;;2.50;;
80700;SDS011;71609;42.630;23.380;2023-09-08T07:56:21;6.25;;;2.80;;
80700;SDS011;71609;42.630;23.380;2023-09-08T07:58:47;7.10;;;2.30;;
80700;SDS011;71609;42.630;23.380;2023-09-08T08:01:13;8.10;;;2.70;;
80700;SDS011;71609;42.630;23.380;2023-09-08T08:03:40;8.25;;;2.42;;
80700;SDS011;71609;42.630;23.380;2023-09-08T08:06:05;10.98;;;2.38;;
80700;SDS011;71609;42.630;23.380;2023-09-08T08:08:31;7.78;;;2.90;;
80700;SDS011;71609;42.630;23.380;2023-09-08T08:10:57;10.70;;;2.60;;
80700;SDS011;71609;42.630;23.380;2023-09-08T08:13:24;5.28;;;2.67;;
80700;SDS011;71609;42.630;23.380;2023-09-08T08:15:50;5.93;;;2.40;;
80700;SDS011;71609;42.630;23.380;2023-09-08T08:18:16;5.35;;;2.22;;
80700;SDS011;71609;42.630;23.380;2023-09-08T08:20:41;9.10;;;2.20;;
80700;SDS011;71609;42.630;23.380;2023-09-08T08:23:07;6.57;;;2.33;;
80700;SDS011;71609;42.630;23.380;2023-09-08T08:25:33;5.80;;;2.45;;
80700;SDS011;71609;42.630;23.380;2023-09-08T08:27:59;5.93;;;2.38;;
80700;SDS011;71609;42.630;23.380;2023-09-08T08:30:26;8.48;;;2.47;;
80700;SDS011;71609;42.630;23.380;2023-09-08T08:32:52;5.57;;;2.50;;
80700;SDS011;71609;42.630;23.380;2023-09-08T08:35:21;7.70;;;2.53;;
80700;SDS011;71609;42.630;23.380;2023-09-08T08:37:46;8.68;;;2.40;;
80700;SDS011;71609;42.630;23.380;2023-09-08T08:40:12;6.72;;;2.55;;
80700;SDS011;71609;42.630;23.380;2023-09-08T08:42:38;8.82;;;2.20;;
80700;SDS011;71609;42.630;23.380;2023-09-08T08:45:05;7.03;;;2.25;;
80700;SDS011;71609;42.630;23.380;2023-09-08T08:47:31;8.20;;;2.40;;
80700;SDS011;71609;42.630;23.380;2023-09-08T08:49:58;13.43;;;2.13;;
80700;SDS011;71609;42.630;23.380;2023-09-08T08:52:28;6.22;;;2.53;;
80700;SDS011;71609;42.630;23.380;2023-09-08T08:54:54;8.75;;;2.80;;
80700;SDS011;71609;42.630;23.380;2023-09-08T08:57:23;5.57;;;2.10;;
80700;SDS011;71609;42.630;23.380;2023-09-08T08:59:51;7.45;;;2.25;;
80700;SDS011;71609;42.630;23.380;2023-09-08T09:02:17;5.78;;;2.38;;
80700;SDS011;71609;42.630;23.380;2023-09-08T09:04:44;6.45;;;2.40;;
80700;SDS011;71609;42.630;23.380;2023-09-08T09:07:14;4.78;;;2.20;;
80700;SDS011;71609;42.630;23.380;2023-09-08T09:09:40;7.13;;;2.53;;
80700;SDS011;71609;42.630;23.380;2023-09-08T09:12:06;7.65;;;2.60;;
80700;SDS011;71609;42.630;23.380;2023-09-08T09:14:32;8.23;;;2.60;;
80700;SDS011;71609;42.630;23.380;2023-09-08T09:16:58;9.93;;;2.53;;
80700;SDS011;71609;42.630;23.380;2023-09-08T09:19:25;8.63;;;2.72;;
80700;SDS011;71609;42.630;23.380;2023-09-08T09:21:52;6.93;;;2.90;;
80700;SDS011;71609;42.630;23.380;2023-09-08T09:27:11;10.35;;;2.95;;
80700;SDS011;71609;42.630;23.380;2023-09-08T09:29:47;8.95;;;2.70;;
80700;SDS011;71609;42.630;23.380;2023-09-08T09:32:15;5.53;;;2.47;;
80700;SDS011;71609;42.630;23.380;2023-09-08T09:35:00;8.10;;;2.92;;
80700;SDS011;71609;42.630;23.380;2023-09-08T09:37:26;6.47;;;2.80;;
80700;SDS011;71609;42.630;23.380;2023-09-08T09:39:54;7.05;;;2.50;;
80700;SDS011;71609;42.630;23.380;2023-09-08T09:42:20;11.77;;;3.17;;
80700;SDS011;71609;42.630;23.380;2023-09-08T09:44:47;8.70;;;2.60;;
80700;SDS011;71609;42.630;23.380;2023-09-08T09:47:14;5.13;;;2.47;;
80700;SDS011;71609;42.630;23.380;2023-09-08T09:49:46;8.32;;;2.60;;
80700;SDS011;71609;42.630;23.380;2023-09-08T09:52:13;9.07;;;2.70;;
80700;SDS011;71609;42.630;23.380;2023-09-08T09:54:45;8.68;;;2.60;;
80700;SDS011;71609;42.630;23.380;2023-09-08T09:57:13;7.03;;;2.72;;
80700;SDS011;71609;42.630;23.380;2023-09-08T09:59:42;9.20;;;2.78;;
80700;SDS011;71609;42.630;23.380;2023-09-08T10:02:13;7.70;;;2.50;;
80700;SDS011;71609;42.630;23.380;2023-09-08T10:04:40;9.13;;;3.05;;
80700;SDS011;71609;42.630;23.380;2023-09-08T10:07:06;6.13;;;2.47;;
80700;SDS011;71609;42.630;23.380;2023-09-08T10:09:32;5.80;;;2.70;;
80700;SDS011;71609;42.630;23.380;2023-09-08T10:11:59;6.95;;;2.42;;
80700;SDS011;71609;42.630;23.380;2023-09-08T10:14:29;7.68;;;2.35;;
80700;SDS011;71609;42.630;23.380;2023-09-08T10:16:56;17.70;;;2.17;;
80700;SDS011;71609;42.630;23.380;2023-09-08T10:19:25;5.55;;;2.60;;
80700;SDS011;71609;42.630;23.380;2023-09-08T10:21:51;17.38;;;3.05;;
80700;SDS011;71609;42.630;23.380;2023-09-08T10:24:24;34.65;;;3.63;;
80700;SDS011;71609;42.630;23.380;2023-09-08T10:27:07;22.63;;;3.17;;
80700;SDS011;71609;42.630;23.380;2023-09-08T10:29:37;16.20;;;3.20;;
80700;SDS011;71609;42.630;23.380;2023-09-08T10:32:04;31.42;;;3.63;;
80700;SDS011;71609;42.630;23.380;2023-09-08T10:34:31;28.90;;;4.07;;
80700;SDS011;71609;42.630;23.380;2023-09-08T10:36:59;30.23;;;3.75;;
80700;SDS011;71609;42.630;23.380;2023-09-08T10:39:32;12.13;;;2.80;;
80700;SDS011;71609;42.630;23.380;2023-09-08T10:42:20;13.63;;;2.75;;
80700;SDS011;71609;42.630;23.380;2023-09-08T10:45:00;22.33;;;3.25;;
80700;SDS011;71609;42.630;23.380;2023-09-08T10:52:40;12.82;;;2.78;;
80700;SDS011;71609;42.630;23.380;2023-09-08T10:55:06;7.53;;;2.80;;
80700;SDS011;71609;42.630;23.380;2023-09-08T10:57:32;10.20;;;2.45;;
80700;SDS011;71609;42.630;23.380;2023-09-08T11:00:00;6.03;;;3.00;;
80700;SDS011;71609;42.630;23.380;2023-09-08T11:02:37;5.45;;;2.50;;
80700;SDS011;71609;42.630;23.380;2023-09-08T11:05:08;7.80;;;2.50;;
80700;SDS011;71609;42.630;23.380;2023-09-08T11:07:38;7.55;;;2.63;;
80700;SDS011;71609;42.630;23.380;2023-09-08T11:10:05;9.82;;;2.65;;
80700;SDS011;71609;42.630;23.380;2023-09-08T11:12:35;7.38;;;2.65;;
80700;SDS011;71609;42.630;23.380;2023-09-08T11:15:05;7.78;;;2.47;;
80700;SDS011;71609;42.630;23.380;2023-09-08T11:17:33;10.25;;;2.92;;
80700;SDS011;71609;42.630;23.380;2023-09-08T11:20:00;8.98;;;2.90;;
80700;SDS011;71609;42.630;23.380;2023-09-08T11:22:36;6.45;;;2.38;;
80700;SDS011;71609;42.630;23.380;2023-09-08T11:25:03;9.07;;;3.10;;
80700;SDS011;71609;42.630;23.380;2023-09-08T11:27:31;6.00;;;2.97;;
80700;SDS011;71609;42.630;23.380;2023-09-08T11:29:57;7.47;;;2.80;;
80700;SDS011;71609;42.630;23.380;2023-09-08T11:32:23;8.65;;;2.80;;
80700;SDS011;71609;42.630;23.380;2023-09-08T11:34:50;9.10;;;2.83;;
80700;SDS011;71609;42.630;23.380;2023-09-08T11:37:16;9.32;;;2.78;;
80700;SDS011;71609;42.630;23.380;2023-09-08T11:39:43;7.43;;;3.22;;
80700;SDS011;71609;42.630;23.380;2023-09-08T11:42:11;5.63;;;2.55;;
80700;SDS011;71609;42.630;23.380;2023-09-08T11:44:38;7.53;;;2.58;;
80700;SDS011;71609;42.630;23.380;2023-09-08T11:47:06;8.90;;;2.80;;
80700;SDS011;71609;42.630;23.380;2023-09-08T11:49:40;8.52;;;2.90;;
80700;SDS011;71609;42.630;23.380;2023-09-08T11:52:06;10.95;;;2.75;;
80700;SDS011;71609;42.630;23.380;2023-09-08T11:54:33;6.22;;;2.22;;
80700;SDS011;71609;42.630;23.380;2023-09-08T11:57:01;5.80;;;2.45;;
80700;SDS011;71609;42.630;23.380;2023-09-08T11:59:28;6.20;;;2.47;;
80700;SDS011;71609;42.630;23.380;2023-09-08T12:01:59;6.60;;;2.22;;
80700;SDS011;71609;42.630;23.380;2023-09-08T12:04:25;7.57;;;2.85;;
80700;SDS011;71609;42.630;23.380;2023-09-08T12:06:51;6.70;;;2.55;;
80700;SDS011;71609;42.630;23.380;2023-09-08T12:09:18;6.88;;;2.92;;
80700;SDS011;71609;42.630;23.380;2023-09-08T12:11:46;6.13;;;2.88;;
80700;SDS011;71609;42.630;23.380;2023-09-08T12:14:12;7.57;;;2.78;;
80700;SDS011;71609;42.630;23.380;2023-09-08T12:16:39;9.63;;;3.13;;
80700;SDS011;71609;42.630;23.380;2023-09-08T12:19:06;6.03;;;2.50;;
80700;SDS011;71609;42.630;23.380;2023-09-08T12:21:35;6.90;;;2.83;;
80700;SDS011;71609;42.630;23.380;2023-09-08T12:24:18;6.80;;;2.95;;
80700;SDS011;71609;42.630;23.380;2023-09-08T12:26:44;6.43;;;2.83;;
80700;SDS011;71609;42.630;23.380;2023-09-08T12:29:13;6.57;;;2.65;;
80700;SDS011;71609;42.630;23.380;2023-09-08T12:31:39;4.72;;;2.70;;
80700;SDS011;71609;42.630;23.380;2023-09-08T12:34:04;7.32;;;2.42;;
80700;SDS011;71609;42.630;23.380;2023-09-08T12:36:30;6.50;;;2.65;;
80700;SDS011;71609;42.630;23.380;2023-09-08T12:38:56;4.82;;;2.60;;
80700;SDS011;71609;42.630;23.380;2023-09-08T12:41:21;6.22;;;2.75;;
80700;SDS011;71609;42.630;23.380;2023-09-08T12:43:47;6.40;;;2.85;;
80700;SDS011;71609;42.630;23.380;2023-09-08T12:46:13;4.63;;;2.40;;
80700;SDS011;71609;42.630;23.380;2023-09-08T12:48:42;5.25;;;2.72;;
80700;SDS011;71609;42.630;23.380;2023-09-08T12:51:08;6.80;;;2.50;;
80700;SDS011;71609;42.630;23.380;2023-09-08T12:53:34;5.82;;;2.50;;
80700;SDS011;71609;42.630;23.380;2023-09-08T12:56:02;5.67;;;2.77;;
80700;SDS011;71609;42.630;23.380;2023-09-08T12:58:28;6.60;;;2.53;;
80700;SDS011;71609;42.630;23.380;2023-09-08T13:00:54;5.43;;;2.67;;
80700;SDS011;71609;42.630;23.380;2023-09-08T13:03:19;8.10;;;2.63;;
80700;SDS011;71609;42.630;23.380;2023-09-08T13:05:45;7.75;;;2.70;;
80700;SDS011;71609;42.630;23.380;2023-09-08T13:08:11;5.97;;;2.55;;
80700;SDS011;71609;42.630;23.380;2023-09-08T13:10:37;6.70;;;2.47;;
80700;SDS011;71609;42.630;23.380;2023-09-08T13:13:02;5.55;;;2.45;;
80700;SDS011;71609;42.630;23.380;2023-09-08T13:15:29;6.47;;;2.33;;
80700;SDS011;71609;42.630;23.380;2023-09-08T13:17:55;7.50;;;2.50;;
80700;SDS011;71609;42.630;23.380;2023-09-08T13:20:21;4.53;;;2.30;;
80700;SDS011;71609;42.630;23.380;2023-09-08T13:22:47;5.40;;;2.72;;
80700;SDS011;71609;42.630;23.380;2023-09-08T13:25:12;5.47;;;2.53;;
80700;SDS011;71609;42.630;23.380;2023-09-08T13:27:40;5.45;;;2.30;;
80700;SDS011;71609;42.630;23.380;2023-09-08T13:32:39;7.30;;;2.70;;
80700;SDS011;71609;42.630;23.380;2023-09-08T13:35:05;5.10;;;2.15;;
80700;SDS011;71609;42.630;23.380;2023-09-08T13:37:31;5.82;;;2.60;;
80700;SDS011;71609;42.630;23.380;2023-09-08T13:39:59;7.45;;;3.45;;
80700;SDS011;71609;42.630;23.380;2023-09-08T13:42:25;4.55;;;2.40;;
80700;SDS011;71609;42.630;23.380;2023-09-08T13:44:51;5.53;;;2.90;;
80700;SDS011;71609;42.630;23.380;2023-09-08T13:47:17;5.45;;;2.72;;
80700;SDS011;71609;42.630;23.380;2023-09-08T13:49:42;5.68;;;2.47;;
80700;SDS011;71609;42.630;23.380;2023-09-08T13:52:08;4.20;;;2.42;;
80700;SDS011;71609;42.630;23.380;2023-09-08T13:54:33;4.57;;;2.47;;
80700;SDS011;71609;42.630;23.380;2023-09-08T13:57:00;4.72;;;2.50;;
80700;SDS011;71609;42.630;23.380;2023-09-08T13:59:27;6.43;;;2.47;;
80700;SDS011;71609;42.630;23.380;2023-09-08T14:01:56;4.95;;;2.38;;
80700;SDS011;71609;42.630;23.380;2023-09-08T14:04:24;4.60;;;2.33;;
80700;SDS011;71609;42.630;23.380;2023-09-08T14:06:50;6.30;;;2.45;;
80700;SDS011;71609;42.630;23.380;2023-09-08T14:09:15;6.80;;;2.70;;
80700;SDS011;71609;42.630;23.380;2023-09-08T14:11:41;5.72;;;2.70;;
80700;SDS011;71609;42.630;23.380;2023-09-08T14:14:07;5.47;;;2.75;;
80700;SDS011;71609;42.630;23.380;2023-09-08T14:16:32;7.50;;;2.95;;
80700;SDS011;71609;42.630;23.380;2023-09-08T14:18:58;6.00;;;2.65;;
80700;SDS011;71609;42.630;23.380;2023-09-08T14:21:24;4.85;;;2.30;;
80700;SDS011;71609;42.630;23.380;2023-09-08T14:23:49;5.85;;;2.65;;
80700;SDS011;71609;42.630;23.380;2023-09-08T14:26:15;5.53;;;2.70;;
80700;SDS011;71609;42.630;23.380;2023-09-08T14:28:41;5.65;;;2.30;;
80700;SDS011;71609;42.630;23.380;2023-09-08T14:31:07;4.60;;;2.53;;
80700;SDS011;71609;42.630;23.380;2023-09-08T14:33:33;5.32;;;2.70;;
80700;SDS011;71609;42.630;23.380;2023-09-08T14:35:59;5.05;;;2.60;;
80700;SDS011;71609;42.630;23.380;2023-09-08T14:38:25;5.20;;;2.38;;
80700;SDS011;71609;42.630;23.380;2023-09-08T14:40:57;4.90;;;2.30;;
80700;SDS011;71609;42.630;23.380;2023-09-08T14:43:24;5.32;;;2.45;;
80700;SDS011;71609;42.630;23.380;2023-09-08T14:45:51;5.07;;;2.50;;